createdAt,value
2018-11-29T00:05:35.204Z,81.70
2018-11-29T00:10:38.882Z,81.70
2018-11-29T00:15:37.015Z,82.10
2018-11-29T00:18:06.489Z,82.30
2018-11-29T00:20:35.811Z,82.70
2018-11-29T00:28:02.800Z,83.20
2018-11-29T00:30:32.015Z,83.50
2018-11-29T00:33:01.291Z,84.50
2018-11-29T00:35:30.819Z,83.20
2018-11-29T00:40:28.887Z,83.10
2018-11-29T00:42:58.127Z,83.00
2018-11-29T00:45:27.316Z,83.00
2018-11-29T00:47:56.932Z,84.20
2018-11-29T00:50:26.159Z,82.70
2018-11-29T00:52:55.442Z,83.00
2018-11-29T00:55:24.821Z,82.70
2018-11-29T00:57:54.013Z,82.90
2018-11-29T01:00:24.772Z,82.70
2018-11-29T01:02:54.068Z,82.70
2018-11-29T01:05:23.371Z,82.50
2018-11-29T01:07:53.345Z,82.20
2018-11-29T01:10:23.031Z,81.90
2018-11-29T01:12:52.327Z,82.00
2018-11-29T01:15:22.562Z,82.30
2018-11-29T01:17:52.432Z,82.50
2018-11-29T01:27:49.797Z,82.70
2018-11-29T01:30:20.106Z,82.70
2018-11-29T01:32:49.415Z,82.50
2018-11-29T01:35:20.177Z,82.90
2018-11-29T01:37:49.999Z,84.10
2018-11-29T01:40:22.178Z,84.40
2018-11-29T01:45:26.368Z,83.20
2018-11-29T01:50:24.405Z,83.00
2018-11-29T01:52:53.522Z,83.00
2018-11-29T01:55:22.785Z,83.20
2018-11-29T01:57:52.090Z,83.50
2018-11-29T02:00:21.351Z,81.90
2018-11-29T02:02:51.565Z,83.40
2018-11-29T02:05:21.060Z,83.00
2018-11-29T02:07:50.249Z,82.70
2018-11-29T02:10:24.856Z,82.60
2018-11-29T02:12:54.354Z,82.90
2018-11-29T02:15:23.670Z,82.80
2018-11-29T02:20:21.731Z,82.60
2018-11-29T02:22:50.845Z,82.70
2018-11-29T02:25:20.433Z,82.50
2018-11-29T02:30:19.927Z,82.10
2018-11-29T02:32:49.598Z,81.90
2018-11-29T02:35:18.876Z,82.10
2018-11-29T02:40:17.787Z,82.20
2018-11-29T02:42:48.058Z,82.10
2018-11-29T02:47:48.180Z,82.00
2018-11-29T02:50:17.453Z,82.00
2018-11-29T02:52:46.640Z,82.30
2018-11-29T02:57:44.809Z,82.70
2018-11-29T03:05:16.450Z,82.50
2018-11-29T03:07:45.707Z,83.70
2018-11-29T03:10:15.267Z,84.70
2018-11-29T03:12:44.458Z,82.80
2018-11-29T03:15:14.933Z,83.30
2018-11-29T03:17:44.600Z,83.60
2018-11-29T03:22:43.140Z,84.00
2018-11-29T03:25:14.332Z,84.10
2018-11-29T03:27:43.753Z,84.40
2018-11-29T03:30:14.985Z,84.60
2018-11-29T03:32:44.185Z,84.70
2018-11-29T03:35:14.659Z,84.70
2018-11-29T03:37:43.850Z,84.70
2018-11-29T03:42:46.373Z,85.30
2018-11-29T03:45:16.257Z,85.50
2018-11-29T03:47:45.879Z,85.60
2018-11-29T03:55:16.034Z,86.50
2018-11-29T03:57:45.325Z,86.60
2018-11-29T04:00:16.114Z,86.10
2018-11-29T04:05:15.792Z,86.10
2018-11-29T04:07:44.993Z,86.10
2018-11-29T04:10:15.407Z,88.50
2018-11-29T04:12:44.783Z,86.50
2018-11-29T04:15:14.906Z,86.20
2018-11-29T04:17:44.584Z,86.30
2018-11-29T04:20:15.941Z,86.20
2018-11-29T04:22:45.589Z,86.50
2018-11-29T04:25:15.348Z,87.30
2018-11-29T04:27:44.556Z,85.80
2018-11-29T04:30:16.714Z,85.60
2018-11-29T04:32:46.345Z,85.50
2018-11-29T04:35:15.641Z,85.80
2018-11-29T04:37:44.860Z,85.80
2018-11-29T04:40:15.922Z,85.90
2018-11-29T04:42:45.254Z,86.10
2018-11-29T04:45:16.469Z,85.90
2018-11-29T04:47:45.937Z,86.30
2018-11-29T04:50:16.318Z,86.60
2018-11-29T04:52:45.559Z,85.90
2018-11-29T05:00:14.684Z,85.80
2018-11-29T05:02:44.180Z,85.80
2018-11-29T05:05:13.846Z,85.90
2018-11-29T05:07:43.096Z,85.90
2018-11-29T05:10:16.798Z,86.10
2018-11-29T05:20:13.362Z,86.30
2018-11-29T05:25:11.933Z,86.10
2018-11-29T05:27:41.330Z,86.10
2018-11-29T05:30:12.030Z,86.20
2018-11-29T05:32:41.254Z,86.20
2018-11-29T05:35:11.731Z,86.10
2018-11-29T05:40:11.375Z,86.10
2018-11-29T05:42:40.975Z,86.20
2018-11-29T05:47:39.523Z,86.20
2018-11-29T05:50:10.890Z,86.30
2018-11-29T05:52:41.755Z,86.30
2018-11-29T05:55:11.702Z,87.30
2018-11-29T05:57:40.908Z,86.50
2018-11-29T06:05:11.182Z,87.10
2018-11-29T06:10:09.118Z,87.10
2018-11-29T06:12:39.167Z,87.20
2018-11-29T06:30:10.123Z,88.00
2018-11-29T06:32:39.458Z,88.20
2018-11-29T06:35:08.757Z,88.50
2018-11-29T06:37:38.319Z,88.60
2018-11-29T06:40:11.810Z,88.60
2018-11-29T06:52:48.541Z,89.10
2018-11-29T06:55:22.712Z,89.00
2018-11-29T06:57:53.811Z,89.90
2018-11-29T07:03:02.556Z,88.80
2018-11-29T07:05:33.632Z,88.70
2018-11-29T07:08:04.063Z,88.60
2018-11-29T07:10:34.837Z,88.30
2018-11-29T07:13:06.728Z,88.40
2018-11-29T07:15:37.555Z,90.30
2018-11-29T07:20:52.966Z,88.90
2018-11-29T07:23:23.357Z,88.10
2018-11-29T07:25:53.917Z,88.30
2018-11-29T07:28:23.848Z,88.20
2018-11-29T07:33:22.538Z,87.30
2018-11-29T07:43:24.891Z,85.50
2018-11-29T07:45:54.531Z,85.20
2018-11-29T07:53:21.870Z,85.50
2018-11-29T07:58:20.026Z,86.30
2018-11-29T08:00:49.351Z,86.30
2018-11-29T08:03:18.637Z,86.00
2018-11-29T08:05:48.087Z,86.20
2018-11-29T08:08:17.320Z,86.80
2018-11-29T08:10:46.669Z,86.90
2018-11-29T08:13:21.500Z,87.10
2018-11-29T08:15:50.780Z,86.70
2018-11-29T08:23:18.116Z,85.00
2018-11-29T08:25:47.664Z,84.50
2018-11-29T08:28:22.943Z,83.90
2018-11-29T08:30:54.813Z,83.50
2018-11-29T08:35:58.794Z,82.60
2018-11-29T08:38:32.988Z,82.60
2018-11-29T08:43:32.670Z,82.20
2018-11-29T08:46:26.439Z,82.00
2018-11-29T08:51:27.295Z,81.00
2018-11-29T08:53:56.826Z,80.70
2018-11-29T09:06:21.715Z,81.00
2018-11-29T09:13:49.108Z,81.00
2018-11-29T09:18:47.915Z,80.10
2018-11-29T09:21:17.361Z,79.90
2018-11-29T09:23:47.301Z,79.70
2018-11-29T09:26:16.640Z,79.40
2018-11-29T09:28:45.879Z,79.10
2018-11-29T09:31:15.186Z,78.80
2018-11-29T09:33:44.910Z,78.50
2018-11-29T09:36:14.705Z,78.30
2018-11-29T09:38:44.012Z,78.10
2018-11-29T09:41:13.347Z,77.80
2018-11-29T09:43:42.693Z,78.40
2018-11-29T09:48:41.254Z,76.90
2018-11-29T10:01:06.733Z,76.50
2018-11-29T10:08:34.002Z,76.70
2018-11-29T10:16:01.121Z,75.60
2018-11-29T10:18:30.948Z,75.30
2018-11-29T10:28:27.003Z,76.00
2018-11-29T10:30:57.812Z,76.10
2018-11-29T10:33:27.348Z,75.90
2018-11-29T10:38:27.850Z,75.60
2018-11-29T10:40:57.063Z,73.30
2018-11-29T10:43:26.341Z,75.10
2018-11-29T10:50:53.741Z,74.40
2018-11-29T10:53:23.377Z,74.30
2018-11-29T11:00:58.865Z,73.60
2018-11-29T11:03:28.943Z,73.20
2018-11-29T11:06:04.174Z,72.90
2018-11-29T11:08:35.809Z,72.90
2018-11-29T11:13:38.294Z,72.60
2018-11-29T11:16:07.957Z,72.20
2018-11-29T11:23:39.031Z,71.10
2018-11-29T11:26:10.350Z,72.00
2018-11-29T11:31:10.371Z,70.90
2018-11-29T11:33:39.622Z,71.00
2018-11-29T11:36:09.636Z,71.40
2018-11-29T11:38:39.091Z,71.60
2018-11-29T11:41:10.991Z,71.70
2018-11-29T11:46:09.159Z,71.20
2018-11-29T11:48:38.480Z,71.00
2018-11-29T11:51:21.655Z,71.10
2018-11-29T11:53:51.940Z,71.10
2018-11-29T11:56:28.073Z,71.30
2018-11-29T11:58:57.663Z,71.20
2018-11-29T12:01:27.374Z,71.10
2018-11-29T12:06:25.259Z,71.50
2018-11-29T12:08:54.471Z,71.10
2018-11-29T12:11:23.934Z,71.00
2018-11-29T12:16:21.919Z,71.90
2018-11-29T12:23:48.695Z,70.20
2018-11-29T12:28:46.696Z,69.90
2018-11-29T12:31:16.023Z,69.90
2018-11-29T12:33:45.360Z,69.70
2018-11-29T12:36:15.391Z,69.50
2018-11-29T12:38:44.819Z,69.30
2018-11-29T12:41:14.119Z,68.70
2018-11-29T12:48:40.988Z,68.50
2018-11-29T12:58:37.660Z,68.90
2018-11-29T13:01:06.871Z,69.20
2018-11-29T13:03:36.130Z,69.60
2018-11-29T13:06:05.862Z,69.90
2018-11-29T13:08:35.208Z,70.60
2018-11-29T13:11:04.734Z,71.10
2018-11-29T13:16:02.851Z,72.20
2018-11-29T13:18:32.146Z,72.60
2018-11-29T13:23:30.924Z,73.20
2018-11-29T13:35:56.347Z,73.90
2018-11-29T13:38:26.143Z,74.40
2018-11-29T13:40:55.294Z,74.60
2018-11-29T13:43:24.488Z,74.70
2018-11-29T13:45:54.320Z,74.90
2018-11-29T13:50:53.358Z,73.70
2018-11-29T13:58:20.576Z,75.60
2018-11-29T14:00:50.144Z,75.60
2018-11-29T14:03:19.500Z,75.50
2018-11-29T14:05:49.450Z,76.60
2018-11-29T14:08:18.780Z,75.50
2018-11-29T14:13:16.938Z,74.10
2018-11-29T14:23:18.230Z,75.50
2018-11-29T14:25:47.347Z,75.70
2018-11-29T14:33:18.121Z,75.50
2018-11-29T14:35:48.442Z,75.60
2018-11-29T14:38:19.352Z,75.70
2018-11-29T14:40:48.864Z,77.10
2018-11-29T14:43:18.789Z,76.50
2018-11-29T14:48:17.458Z,76.30
2018-11-29T14:50:47.711Z,76.30
2018-11-29T14:53:17.039Z,76.30
2018-11-29T14:55:46.591Z,76.10
2018-11-29T15:00:45.163Z,77.30
2018-11-29T15:05:44.623Z,76.30
2018-11-29T15:08:15.225Z,76.10
2018-11-29T15:10:44.407Z,76.00
2018-11-29T15:13:13.628Z,75.90
2018-11-29T15:15:43.336Z,76.40
2018-11-29T15:18:12.696Z,76.50
2018-11-29T15:28:12.018Z,76.50
2018-11-29T15:33:10.457Z,76.60
2018-11-29T15:35:40.081Z,76.80
2018-11-29T15:38:09.413Z,77.00
2018-11-29T15:43:08.175Z,77.10
2018-11-29T15:53:03.731Z,77.60
2018-11-29T15:55:33.587Z,77.50
2018-11-29T15:58:03.018Z,77.60
2018-11-29T16:07:59.911Z,78.60
2018-11-29T16:10:30.053Z,78.30
2018-11-29T16:20:35.284Z,78.30
2018-11-29T16:23:05.103Z,78.30
2018-11-29T16:25:34.490Z,78.50
2018-11-29T16:30:35.347Z,78.50
2018-11-29T16:33:07.113Z,78.60
2018-11-29T16:38:07.087Z,78.60
2018-11-29T16:40:36.825Z,78.60
2018-11-29T16:43:06.972Z,78.50
2018-11-29T16:45:36.875Z,77.20
2018-11-29T16:48:06.487Z,78.60
2018-11-29T16:50:36.219Z,78.70
2018-11-29T16:55:34.709Z,78.80
2018-11-29T16:58:08.275Z,78.90
2018-11-29T17:00:37.587Z,78.90
2018-11-29T17:03:06.778Z,79.10
2018-11-29T17:05:36.206Z,78.90
2018-11-29T17:08:06.124Z,78.60
2018-11-29T17:13:07.263Z,78.50
2018-11-29T17:18:05.459Z,78.40
2018-11-29T17:23:04.173Z,78.50
2018-11-29T17:28:02.538Z,79.10
2018-11-29T17:30:32.170Z,79.90
2018-11-29T17:33:02.157Z,78.50
2018-11-29T17:35:31.216Z,78.60
2018-11-29T17:40:29.117Z,78.60
2018-11-29T17:48:10.937Z,78.70
2018-11-29T17:58:09.981Z,79.70
2018-11-29T18:05:37.784Z,80.30
2018-11-29T18:08:06.913Z,80.70
2018-11-29T18:15:38.093Z,81.50
2018-11-29T18:18:07.371Z,82.60
2018-11-29T18:23:05.774Z,83.50
2018-11-29T18:25:35.041Z,82.10
2018-11-29T18:30:32.913Z,82.40
2018-11-29T18:37:59.799Z,82.50
2018-11-29T18:40:29.860Z,82.70
2018-11-29T18:45:37.839Z,83.50
2018-11-29T18:48:07.462Z,83.20
2018-11-29T18:50:37.561Z,83.10
2018-11-29T18:55:36.975Z,83.60
2018-11-29T19:08:09.499Z,83.60
2018-11-29T19:10:38.606Z,83.60
2018-11-29T19:20:43.532Z,83.50
2018-11-29T19:35:48.314Z,83.60
2018-11-29T19:38:17.393Z,83.80
2018-11-29T19:40:46.639Z,83.90
2018-11-29T19:43:16.399Z,84.10
2018-11-29T19:45:46.192Z,84.20
2018-11-29T19:48:15.529Z,84.30
2018-11-29T19:50:45.091Z,84.80
2018-11-29T19:53:17.870Z,84.50
2018-11-29T19:55:47.694Z,85.00
2018-11-29T19:58:17.181Z,85.10
2018-11-29T20:00:46.757Z,85.40
2018-11-29T20:03:15.757Z,85.30
2018-11-29T20:08:13.933Z,86.00
2018-11-29T20:10:43.000Z,86.00
2018-11-29T20:13:14.151Z,86.00
2018-11-29T20:20:42.474Z,85.80
2018-11-29T20:23:13.119Z,85.90
2018-11-29T20:30:42.736Z,85.80
2018-11-29T20:33:12.841Z,86.70
2018-11-29T20:35:43.181Z,85.50
2018-11-29T20:40:44.427Z,85.40
2018-11-29T20:43:14.200Z,85.40
2018-11-29T20:48:20.347Z,85.40
2018-11-29T20:50:50.630Z,85.50
2018-11-29T20:53:25.124Z,85.60
2018-11-29T21:00:53.404Z,85.80
2018-11-29T21:03:22.771Z,85.70
2018-11-29T21:08:22.395Z,85.50
2018-11-29T21:10:52.391Z,85.30
2018-11-29T21:13:21.899Z,85.20
2018-11-29T21:15:52.399Z,85.00
2018-11-29T21:18:23.188Z,85.20
2018-11-29T21:28:21.171Z,86.40
2018-11-29T21:30:50.649Z,85.10
2018-11-29T21:38:20.249Z,85.70
2018-11-29T21:43:25.811Z,85.40
2018-11-29T21:45:55.543Z,85.40
2018-11-29T21:48:24.684Z,85.50
2018-11-29T21:50:53.942Z,86.90
2018-11-29T21:53:23.092Z,86.00
2018-11-29T21:55:52.588Z,86.10
2018-11-29T21:58:21.649Z,86.10
2018-11-29T22:05:48.528Z,85.90
2018-11-29T22:08:17.822Z,85.70
2018-11-29T22:13:15.853Z,85.50
2018-11-29T22:15:45.149Z,85.60
2018-11-29T22:20:50.220Z,85.70
2018-11-29T22:23:19.302Z,85.80
2018-11-29T22:28:17.180Z,86.10
2018-11-29T22:30:46.338Z,86.20
2018-11-29T22:33:15.958Z,86.50
2018-11-29T22:35:45.271Z,86.40
2018-11-29T22:38:14.509Z,86.30
2018-11-29T22:43:15.376Z,86.30
2018-11-29T22:48:13.716Z,86.40
2018-11-29T22:53:11.832Z,86.60
2018-11-29T22:55:41.416Z,86.80
2018-11-29T22:58:10.690Z,86.60
2018-11-29T23:05:42.396Z,87.00
2018-11-29T23:08:11.677Z,86.70
2018-11-29T23:10:40.932Z,86.70
2018-11-29T23:13:10.401Z,86.70
2018-11-29T23:15:39.487Z,86.10
2018-11-29T23:18:08.661Z,86.90
2018-11-29T23:20:38.001Z,87.00
2018-11-29T23:23:08.636Z,87.10
2018-11-29T23:28:07.338Z,87.80
2018-11-29T23:30:36.435Z,87.00
2018-11-29T23:33:05.643Z,86.90
2018-11-29T23:35:35.606Z,86.70
2018-11-29T23:38:05.092Z,86.90
2018-11-29T23:40:34.236Z,87.00
2018-11-29T23:43:03.304Z,85.50
2018-11-29T23:50:30.479Z,87.00
2018-11-29T23:52:59.904Z,87.10
2018-11-29T23:55:29.079Z,87.30
2018-11-29T23:57:58.230Z,88.80
